Time;durP1;ratioP1;P1;durP2;ratioP2;P2;SDS_P1;SDS_P2;PMS_P1;PMS_P2;Temp;Humidity;BMP_temperature;BMP_pressure;BME280_temperature;BME280_humidity;BME280_pressure;Samples;Min_cycle;Max_cycle;Signal;HPM_P1;HPM_P2
2023/03/30 00:02:22;;;;;;;48.40;30.52;;;;;;;7.09;100.00;100343.63;4939584;29;20052;-77
2023/03/30 00:04:51;;;;;;;50.95;30.25;;;;;;;7.09;100.00;100336.47;4930492;29;20040;-79
2023/03/30 00:07:18;;;;;;;57.80;31.85;;;;;;;7.13;100.00;100335.19;4933564;29;20794;-78
2023/03/30 00:09:45;;;;;;;49.83;29.15;;;;;;;7.14;100.00;100325.41;4936207;29;20072;-78
2023/03/30 00:12:12;;;;;;;54.35;32.00;;;;;;;7.10;100.00;100313.44;4939729;29;20043;-77
2023/03/30 00:14:41;;;;;;;53.90;30.35;;;;;;;7.15;100.00;100319.13;4937536;29;20027;-78
2023/03/30 00:17:07;;;;;;;53.60;30.08;;;;;;;7.11;100.00;100309.78;4933282;29;20142;-78
2023/03/30 00:19:36;;;;;;;61.08;33.75;;;;;;;7.07;100.00;100303.97;4922893;29;20035;-78
2023/03/30 00:22:02;;;;;;;58.55;32.85;;;;;;;7.11;100.00;100309.78;4936228;29;20150;-79
2023/03/30 00:24:28;;;;;;;59.80;33.40;;;;;;;7.03;100.00;100304.41;4938632;29;20444;-77
2023/03/30 00:26:53;;;;;;;57.67;32.23;;;;;;;7.09;100.00;100298.50;4931571;29;20028;-77
2023/03/30 00:29:18;;;;;;;64.73;33.10;;;;;;;7.04;100.00;100301.59;4932706;29;20028;-77
2023/03/30 00:31:44;;;;;;;65.80;33.90;;;;;;;6.97;100.00;100289.91;4936141;29;20292;-78
2023/03/30 00:34:09;;;;;;;60.33;32.60;;;;;;;6.93;100.00;100280.56;4916881;29;20044;-78
2023/03/30 00:36:36;;;;;;;63.93;35.10;;;;;;;6.97;100.00;100281.94;4936902;28;20063;-77
2023/03/30 00:39:05;;;;;;;66.13;34.33;;;;;;;6.93;100.00;100276.13;4931472;29;20024;-78
2023/03/30 00:41:32;;;;;;;62.38;32.45;;;;;;;6.94;100.00;100285.75;4937478;29;20036;-77
2023/03/30 00:44:04;;;;;;;59.75;34.90;;;;;;;6.96;100.00;100283.78;4930240;28;20042;-79
2023/03/30 00:46:30;;;;;;;67.13;35.83;;;;;;;6.87;100.00;100268.75;4937344;28;20507;-78
2023/03/30 00:48:58;;;;;;;;;;;;;;;6.94;100.00;100269.81;4940456;29;20044;-78
2023/03/30 00:51:25;;;;;;;60.30;34.03;;;;;;;6.92;100.00;100260.34;4938098;29;19946;-77
2023/03/30 00:53:55;;;;;;;60.10;34.08;;;;;;;6.88;100.00;100254.50;4929782;29;20096;-78
2023/03/30 00:56:25;;;;;;;58.30;34.53;;;;;;;6.94;100.00;100256.53;4932334;29;20099;-78
2023/03/30 00:58:53;;;;;;;57.88;34.00;;;;;;;6.94;100.00;100255.72;4923333;29;20044;-79
2023/03/30 01:01:27;;;;;;;64.20;33.45;;;;;;;6.93;100.00;100248.72;4919494;29;20031;-78
2023/03/30 01:03:54;;;;;;;58.97;32.63;;;;;;;6.87;100.00;100223.63;4928091;29;20517;-78
2023/03/30 01:06:23;;;;;;;67.82;34.63;;;;;;;6.90;100.00;100214.53;4928943;29;20027;-78
2023/03/30 01:08:50;;;;;;;61.40;33.45;;;;;;;6.98;100.00;100226.06;4923885;29;20526;-77
2023/03/30 01:11:16;;;;;;;56.58;32.38;;;;;;;6.93;100.00;100212.44;4938324;29;20023;-77
2023/03/30 01:13:46;;;;;;;59.60;31.40;;;;;;;6.96;100.00;100213.94;4935461;28;20032;-78
2023/03/30 01:16:32;;;;;;;57.45;31.52;;;;;;;6.94;100.00;100200.00;4915169;29;20032;-80
2023/03/30 01:19:21;;;;;;;61.75;32.67;;;;;;;6.93;100.00;100193.00;4935346;29;20553;-79
2023/03/30 01:22:03;;;;;;;59.33;30.85;;;;;;;7.00;100.00;100186.13;4932619;29;20050;-78
2023/03/30 01:25:06;;;;;;;56.92;32.28;;;;;;;7.07;100.00;100183.66;4935875;29;20071;-78
2023/03/30 01:27:44;;;;;;;57.45;30.00;;;;;;;7.07;100.00;100163.28;4928875;29;20032;-79
2023/03/30 01:30:13;;;;;;;54.55;31.35;;;;;;;7.06;100.00;100161.59;4936094;29;20043;-78
2023/03/30 01:32:51;;;;;;;57.83;31.60;;;;;;;7.08;100.00;100156.97;4937950;28;20023;-79
2023/03/30 01:35:37;;;;;;;53.20;31.92;;;;;;;7.04;100.00;100152.94;4915615;29;20114;-78
2023/03/30 01:38:17;;;;;;;68.68;35.95;;;;;;;7.07;100.00;100162.44;4929915;29;20058;-79
2023/03/30 01:41:09;;;;;;;60.70;34.05;;;;;;;7.07;100.00;100163.28;4934655;29;20032;-78
2023/03/30 01:43:45;;;;;;;60.40;31.70;;;;;;;7.10;100.00;100159.47;4921322;29;20408;-76
2023/03/30 01:46:29;;;;;;;57.92;32.17;;;;;;;7.25;100.00;100168.53;4921791;29;20130;-76
2023/03/30 01:49:01;;;;;;;52.97;31.35;;;;;;;7.23;100.00;100156.41;4927672;29;20047;-76
2023/03/30 01:51:41;;;;;;;50.33;30.42;;;;;;;7.25;100.00;100151.78;4936196;29;20031;-78
2023/03/30 01:54:22;;;;;;;55.20;32.55;;;;;;;7.18;100.00;100133.81;4934087;28;20075;-76
2023/03/30 01:57:05;;;;;;;57.45;31.30;;;;;;;7.15;100.00;100134.13;4924558;29;20071;-76
2023/03/30 01:59:52;;;;;;;49.35;30.08;;;;;;;7.16;100.00;100127.84;4922130;29;20044;-77
2023/03/30 02:02:22;;;;;;;51.72;30.02;;;;;;;7.19;100.00;100127.53;4914612;29;20039;-77
2023/03/30 02:04:52;;;;;;;54.45;30.92;;;;;;;7.23;100.00;100128.03;4922763;29;20032;-77
2023/03/30 02:07:22;;;;;;;57.03;30.55;;;;;;;7.19;100.00;100124.88;4937413;29;20123;-77
2023/03/30 02:09:51;;;;;;;50.63;28.63;;;;;;;7.19;100.00;100114.25;4925689;29;20031;-76
2023/03/30 02:12:18;;;;;;;50.92;29.85;;;;;;;7.19;100.00;100108.94;4930902;29;20497;-76
2023/03/30 02:14:47;;;;;;;56.28;31.73;;;;;;;7.23;100.00;100096.16;4933750;29;20405;-77
2023/03/30 02:17:19;;;;;;;55.25;30.08;;;;;;;7.21;100.00;100089.34;4914537;29;20122;-77
2023/03/30 02:19:45;;;;;;;54.58;31.58;;;;;;;7.15;100.00;100080.22;4933571;29;20032;-77
2023/03/30 02:22:12;;;;;;;61.05;31.15;;;;;;;7.22;100.00;100080.41;4930776;29;20024;-77
2023/03/30 02:24:39;;;;;;;52.10;30.02;;;;;;;7.12;100.00;100076.03;4934460;28;20083;-76
2023/03/30 02:27:05;;;;;;;54.17;29.48;;;;;;;7.22;100.00;100069.78;4930516;29;20027;-76
2023/03/30 02:29:34;;;;;;;54.53;29.27;;;;;;;7.13;100.00;100061.78;4938063;28;20074;-78
2023/03/30 02:32:00;;;;;;;52.40;30.38;;;;;;;7.16;100.00;100061.47;4929588;29;20043;-76
2023/03/30 02:34:38;;;;;;;62.85;29.52;;;;;;;7.18;100.00;100059.47;4935778;28;20039;-76
2023/03/30 02:37:24;;;;;;;59.80;32.03;;;;;;;7.12;100.00;100046.03;4930163;29;20047;-76
2023/03/30 02:40:12;;;;;;;55.67;29.17;;;;;;;7.13;100.00;100045.84;4925514;29;20035;-77
2023/03/30 02:43:04;;;;;;;63.40;30.20;;;;;;;7.14;100.00;100030.75;4912547;29;20379;-76
2023/03/30 02:45:49;;;;;;;59.60;30.58;;;;;;;7.15;100.00;100011.19;4933713;29;20031;-76
2023/03/30 02:48:26;;;;;;;54.47;29.92;;;;;;;7.11;100.00;100010.66;4943954;29;20114;-77
2023/03/30 02:51:10;;;;;;;;;;;;;;;7.23;100.00;100005.06;4944374;29;20035;-77
2023/03/30 02:54:15;;;;;;;54.05;28.92;;;;;;;7.05;100.00;100000.69;4939969;28;19977;-77
2023/03/30 02:57:13;;;;;;;57.97;28.80;;;;;;;7.11;100.00;100015.97;4933353;29;20113;-77
2023/03/30 02:59:55;;;;;;;54.55;31.70;;;;;;;7.16;100.00;100021.66;4933919;28;20046;-76
2023/03/30 03:02:39;;;;;;;54.88;30.60;;;;;;;7.19;100.00;99999.25;4935930;29;20035;-76
2023/03/30 03:05:18;;;;;;;54.97;31.15;;;;;;;7.13;100.00;99992.75;4930404;29;20047;-77
2023/03/30 03:07:52;;;;;;;61.63;30.17;;;;;;;7.10;100.00;99986.94;4930928;28;20043;-77
2023/03/30 03:10:18;;;;;;;55.55;29.67;;;;;;;7.14;100.00;99975.84;4937829;28;20143;-77
2023/03/30 03:12:44;;;;;;;54.53;29.70;;;;;;;7.10;100.00;99968.38;4937909;28;20066;-78
2023/03/30 03:15:11;;;;;;;60.28;30.15;;;;;;;7.05;100.00;99958.22;4934047;29;20078;-77
2023/03/30 03:17:44;;;;;;;55.80;31.02;;;;;;;7.09;100.00;99964.03;4940579;29;20042;-77
2023/03/30 03:20:10;;;;;;;60.20;30.95;;;;;;;7.09;100.00;99958.72;4939888;29;20055;-77
2023/03/30 03:22:35;;;;;;;64.85;32.88;;;;;;;7.08;100.00;99957.91;4941106;28;20507;-78
2023/03/30 03:25:01;;;;;;;57.40;30.65;;;;;;;7.16;100.00;99955.28;4933524;29;20032;-77
2023/03/30 03:27:35;;;;;;;55.25;29.02;;;;;;;7.17;100.00;99945.50;4938559;29;20379;-77
2023/03/30 03:30:13;;;;;;;57.70;29.88;;;;;;;7.12;100.00;99938.00;4940551;29;20079;-78
2023/03/30 03:32:48;;;;;;;61.28;31.20;;;;;;;7.09;100.00;99933.00;4937736;28;20556;-76
2023/03/30 03:35:14;;;;;;;57.63;32.20;;;;;;;7.15;100.00;99921.75;4940403;29;20091;-77
2023/03/30 03:37:40;;;;;;;63.85;31.52;;;;;;;7.12;100.00;99921.25;4938032;29;20028;-77
2023/03/30 03:40:06;;;;;;;56.47;29.20;;;;;;;7.16;100.00;99911.97;4933699;29;20460;-78
2023/03/30 03:42:32;;;;;;;60.35;31.45;;;;;;;7.17;100.00;99925.09;4938507;28;20059;-77
2023/03/30 03:45:08;;;;;;;55.90;31.55;;;;;;;7.26;100.00;99911.81;4932893;29;20481;-77
2023/03/30 03:47:34;;;;;;;56.50;30.15;;;;;;;7.23;100.00;99896.22;4938669;28;20513;-78
2023/03/30 03:50:02;;;;;;;60.20;30.42;;;;;;;7.16;100.00;99890.72;4932854;29;20278;-78
2023/03/30 03:52:29;;;;;;;60.15;31.90;;;;;;;7.19;100.00;99885.13;4939484;28;20042;-78
2023/03/30 03:54:54;;;;;;;;;;;;;;;7.22;100.00;99884.78;4937164;29;20043;-77
2023/03/30 03:57:22;;;;;;;56.25;31.52;;;;;;;7.18;100.00;99867.50;4930385;29;19919;-77
2023/03/30 03:59:48;;;;;;;56.20;29.60;;;;;;;7.24;100.00;99863.38;4939824;28;20131;-77
2023/03/30 04:02:14;;;;;;;51.92;29.00;;;;;;;7.29;100.00;99859.25;4937567;29;20378;-77
2023/03/30 04:04:40;;;;;;;50.88;29.17;;;;;;;7.36;100.00;99849.63;4938205;29;20063;-77
2023/03/30 04:07:05;;;;;;;56.38;30.48;;;;;;;7.32;100.00;99834.19;4940409;29;20054;-77
2023/03/30 04:09:31;;;;;;;60.03;31.77;;;;;;;7.28;100.00;99833.69;4938035;28;20556;-77
2023/03/30 04:12:14;;;;;;;64.18;31.00;;;;;;;7.27;100.00;99823.22;4932822;29;20039;-77
2023/03/30 04:15:09;;;;;;;56.55;30.80;;;;;;;7.27;100.00;99820.56;4922481;29;20039;-77
2023/03/30 04:17:58;;;;;;;;;;;;;;;7.30;100.00;99817.56;4921925;29;20059;-77
2023/03/30 04:20:42;;;;;;;55.60;29.30;;;;;;;7.31;100.00;99808.63;4931097;29;19925;-76
2023/03/30 04:23:44;;;;;;;58.15;31.58;;;;;;;7.32;100.00;99802.31;4913177;29;20533;-77
2023/03/30 04:26:47;;;;;;;55.22;29.25;;;;;;;7.34;100.00;99803.00;4910504;29;20597;-77
2023/03/30 04:29:48;;;;;;;54.97;31.10;;;;;;;7.34;100.00;99800.34;4895115;29;20060;-77
2023/03/30 04:33:01;;;;;;;54.42;30.50;;;;;;;7.34;100.00;99803.00;4876231;29;20169;-77
2023/03/30 04:35:44;;;;;;;59.17;32.08;;;;;;;7.34;100.00;99797.69;4892346;29;20048;-77
2023/03/30 04:38:26;;;;;;;51.60;28.08;;;;;;;7.37;100.00;99800.00;4893997;29;20601;-76
2023/03/30 04:41:08;;;;;;;52.38;29.70;;;;;;;7.40;100.00;99812.97;4886634;29;20075;-76
2023/03/30 04:43:53;;;;;;;61.67;30.25;;;;;;;7.40;100.00;99802.34;4882687;29;20083;-77
2023/03/30 04:46:37;;;;;;;64.18;31.42;;;;;;;7.47;100.00;99797.19;4893503;29;20475;-78
2023/03/30 04:49:22;;;;;;;53.00;29.92;;;;;;;7.45;100.00;99792.03;4890947;29;20079;-77
2023/03/30 04:51:53;;;;;;;66.03;31.73;;;;;;;7.39;100.00;99784.72;4895541;29;20062;-77
2023/03/30 04:54:50;;;;;;;60.20;30.17;;;;;;;7.44;100.00;99782.41;4895480;29;20157;-77
2023/03/30 04:57:34;;;;;;;58.70;31.33;;;;;;;7.45;100.00;99785.91;4894522;29;20047;-77
2023/03/30 05:00:08;;;;;;;62.67;31.65;;;;;;;7.46;100.00;99780.41;4892925;29;20044;-76
2023/03/30 05:02:52;;;;;;;61.15;32.42;;;;;;;7.47;100.00;99773.28;4909654;29;20083;-78
2023/03/30 05:05:38;;;;;;;;;;;;;;;7.47;100.00;99768.81;4922903;29;20044;-77
2023/03/30 05:08:06;;;;;;;58.95;30.52;;;;;;;7.48;100.00;99765.16;4925401;29;20065;-78
2023/03/30 05:10:47;;;;;;;52.35;31.25;;;;;;;7.57;100.00;99764.16;4937579;29;20031;-77
2023/03/30 05:13:12;;;;;;;55.87;29.67;;;;;;;7.53;100.00;99764.66;4918288;29;20371;-78
2023/03/30 05:15:55;;;;;;;55.47;28.80;;;;;;;7.53;100.00;99744.22;4938179;29;20040;-78
2023/03/30 05:18:44;;;;;;;52.33;29.02;;;;;;;7.53;100.00;99738.91;4930305;29;20032;-78
2023/03/30 05:21:20;;;;;;;51.63;27.70;;;;;;;7.54;100.00;99734.44;4927986;29;20032;-77
2023/03/30 05:24:04;;;;;;;56.58;28.90;;;;;;;7.57;100.00;99729.63;4931225;29;20054;-78
2023/03/30 05:26:53;;;;;;;47.97;27.33;;;;;;;7.54;100.00;99715.88;4915609;29;20082;-76
2023/03/30 05:29:48;;;;;;;46.20;26.40;;;;;;;7.56;100.00;99720.00;4934706;28;20142;-76
2023/03/30 05:32:25;;;;;;;50.80;26.67;;;;;;;7.62;100.00;99729.13;4931639;29;20032;-77
2023/03/30 05:35:22;;;;;;;51.28;26.73;;;;;;;7.70;100.00;99717.63;4942972;29;20035;-78
2023/03/30 05:38:26;;;;;;;46.75;25.20;;;;;;;7.71;100.00;99708.69;4884060;29;20545;-77
2023/03/30 05:41:21;;;;;;;47.27;25.87;;;;;;;7.83;100.00;99704.66;4869996;29;20047;-77
2023/03/30 05:44:06;;;;;;;46.38;24.88;;;;;;;7.86;100.00;99696.34;4877140;29;20048;-77
2023/03/30 05:47:09;;;;;;;43.67;22.97;;;;;;;7.84;100.00;99695.69;4840623;29;20044;-77
2023/03/30 05:49:47;;;;;;;38.47;22.40;;;;;;;7.90;100.00;99681.72;4827694;29;20859;-77
2023/03/30 05:52:24;;;;;;;38.63;22.48;;;;;;;7.89;100.00;99677.41;4836358;29;20201;-77
2023/03/30 05:55:16;;;;;;;37.97;23.15;;;;;;;7.83;100.00;99675.44;4823445;29;20261;-76
2023/03/30 05:58:19;;;;;;;40.15;22.35;;;;;;;7.97;100.00;99677.38;4832459;29;20052;-76
2023/03/30 06:00:57;;;;;;;40.60;21.15;;;;;;;8.07;100.00;99684.31;4809044;29;20385;-76
2023/03/30 06:03:31;;;;;;;35.00;20.65;;;;;;;8.09;100.00;99669.03;4812256;29;20077;-76
2023/03/30 06:05:57;;;;;;;33.07;18.87;;;;;;;8.11;100.00;99675.84;4811586;29;20081;-77
2023/03/30 06:08:23;;;;;;;35.20;20.65;;;;;;;8.16;100.00;99659.38;4817188;29;20037;-77
2023/03/30 06:10:53;;;;;;;35.22;19.25;;;;;;;8.09;100.00;99648.59;4863083;29;20055;-77
2023/03/30 06:13:19;;;;;;;29.75;18.33;;;;;;;8.22;100.00;99653.38;4867350;29;20500;-77
2023/03/30 06:15:50;;;;;;;32.92;18.85;;;;;;;8.34;100.00;99641.31;4829589;29;20128;-77
2023/03/30 06:18:19;;;;;;;31.48;18.33;;;;;;;8.41;100.00;99638.81;4842212;29;20545;-77
2023/03/30 06:20:53;;;;;;;25.42;16.58;;;;;;;8.36;100.00;99649.13;4878608;29;20463;-76
2023/03/30 06:23:19;;;;;;;32.38;18.88;;;;;;;8.49;100.00;99644.09;4863957;29;20467;-76
2023/03/30 06:25:46;;;;;;;27.93;17.70;;;;;;;8.60;100.00;99645.53;4861211;29;20025;-77
2023/03/30 06:28:12;;;;;;;30.52;16.58;;;;;;;8.42;100.00;99649.28;4873746;29;20363;-77
2023/03/30 06:30:37;;;;;;;29.63;17.97;;;;;;;8.41;100.00;99647.63;4935442;28;20068;-77
2023/03/30 06:33:06;;;;;;;30.80;17.90;;;;;;;8.37;100.00;99640.97;4930924;29;20525;-77
2023/03/30 06:35:36;;;;;;;36.13;18.83;;;;;;;8.34;100.00;99646.66;4935208;29;20028;-77
2023/03/30 06:38:02;;;;;;;30.33;16.05;;;;;;;8.36;100.00;99643.81;4930341;29;20063;-76
2023/03/30 06:40:28;;;;;;;31.80;17.52;;;;;;;8.40;100.00;99650.47;4936737;29;20037;-75
2023/03/30 06:42:55;;;;;;;29.88;16.90;;;;;;;8.37;100.00;99656.09;4909603;29;20032;-77
2023/03/30 06:45:35;;;;;;;30.10;17.30;;;;;;;8.37;100.00;99656.91;4930371;29;20613;-77
2023/03/30 06:48:01;;;;;;;29.55;17.10;;;;;;;8.37;100.00;99651.59;4938633;28;20055;-78
2023/03/30 06:50:28;;;;;;;32.47;19.17;;;;;;;8.41;100.00;99652.94;4938634;28;20142;-77
2023/03/30 06:53:03;;;;;;;33.95;17.45;;;;;;;8.47;100.00;99658.56;4932674;29;20040;-78
2023/03/30 06:55:36;;;;;;;31.98;17.95;;;;;;;8.44;100.00;99647.28;4937477;29;20096;-78
2023/03/30 06:58:01;;;;;;;34.30;17.13;;;;;;;8.58;100.00;99648.34;4933003;29;20099;-77
2023/03/30 07:00:27;;;;;;;33.00;18.50;;;;;;;8.57;100.00;99641.38;4938312;28;20497;-78
2023/03/30 07:03:17;;;;;;;29.80;16.70;;;;;;;8.53;100.00;99644.56;4941626;28;20037;-78
2023/03/30 07:05:51;;;;;;;29.10;16.98;;;;;;;8.63;100.00;99650.47;4938221;29;20476;-77
2023/03/30 07:08:28;;;;;;;31.85;17.23;;;;;;;8.57;100.00;99641.38;4937447;29;20595;-77
2023/03/30 07:10:57;;;;;;;29.20;17.58;;;;;;;8.63;100.00;99650.47;4941183;29;20127;-79
2023/03/30 07:13:27;;;;;;;34.45;18.10;;;;;;;8.68;100.00;99642.78;4938390;28;20040;-78
2023/03/30 07:15:52;;;;;;;26.50;15.93;;;;;;;8.79;100.00;99650.38;4935237;29;20053;-78
2023/03/30 07:18:18;;;;;;;27.63;17.30;;;;;;;8.85;100.00;99646.19;4916349;29;20039;-77
2023/03/30 07:20:44;;;;;;;25.98;15.38;;;;;;;8.85;100.00;99644.34;4936063;29;20071;-77
2023/03/30 07:23:20;;;;;;;23.77;15.73;;;;;;;8.82;100.00;99649.19;4932458;29;20554;-77
2023/03/30 07:25:47;;;;;;;27.90;16.27;;;;;;;8.78;100.00;99650.53;4930515;29;20024;-78
2023/03/30 07:28:25;;;;;;;28.83;16.90;;;;;;;8.77;100.00;99652.38;4923272;29;20047;-78
2023/03/30 07:30:51;;;;;;;31.15;17.08;;;;;;;8.84;100.00;99652.50;4930376;29;20127;-78
2023/03/30 07:33:18;;;;;;;27.35;17.00;;;;;;;8.86;100.00;99656.63;4932130;29;20122;-77
2023/03/30 07:35:47;;;;;;;27.77;15.47;;;;;;;9.06;100.00;99664.97;4938547;29;20040;-77
2023/03/30 07:38:17;;;;;;;28.85;16.45;;;;;;;8.99;100.00;99656.06;4934981;29;20402;-77
2023/03/30 07:40:49;;;;;;;32.42;16.38;;;;;;;9.02;100.00;99662.84;4942846;29;20421;-78
2023/03/30 07:43:14;;;;;;;30.33;15.80;;;;;;;9.08;100.00;99654.13;4933273;29;20197;-77
2023/03/30 07:45:40;;;;;;;24.30;16.00;;;;;;;9.28;100.00;99665.94;4935872;28;20067;-77
2023/03/30 07:48:08;;;;;;;29.35;16.48;;;;;;;9.42;100.00;99664.31;4930471;29;20032;-77
2023/03/30 07:50:34;;;;;;;27.05;14.50;;;;;;;9.42;100.00;99664.31;4939535;29;20023;-79
2023/03/30 07:53:01;;;;;;;19.55;13.40;;;;;;;9.43;100.00;99662.47;4943159;28;20068;-78
2023/03/30 07:55:27;;;;;;;23.83;13.57;;;;;;;9.41;100.00;99653.84;4947859;28;20067;-78
2023/03/30 07:57:59;;;;;;;21.30;13.77;;;;;;;9.86;100.00;99660.84;4935715;29;20043;-78
2023/03/30 08:00:24;;;;;;;25.57;13.50;;;;;;;9.99;100.00;99651.38;4929969;29;20035;-78
2023/03/30 08:03:08;;;;;;;27.42;12.90;;;;;;;10.09;100.00;99631.41;4936809;29;20082;-77
2023/03/30 08:05:34;;;;;;;24.88;13.82;;;;;;;10.26;100.00;99625.88;4946750;29;20036;-78
2023/03/30 08:08:12;;;;;;;18.33;11.57;;;;;;;10.32;100.00;99625.97;4942878;29;20040;-79
2023/03/30 08:10:37;;;;;;;22.63;13.77;;;;;;;10.16;100.00;99620.84;4943044;29;20035;-79
2023/03/30 08:13:03;;;;;;;19.70;12.20;;;;;;;10.04;100.00;99616.97;4943186;28;20398;-76
2023/03/30 08:15:28;;;;;;;23.33;14.00;;;;;;;10.03;100.00;99610.81;4941611;29;20067;-77
2023/03/30 08:17:54;;;;;;;23.97;12.90;;;;;;;10.04;100.00;99616.97;4934720;29;20048;-77
2023/03/30 08:20:19;;;;;;;21.80;13.53;;;;;;;10.34;100.00;99628.44;4936253;29;20087;-79
2023/03/30 08:22:44;;;;;;;21.43;13.27;;;;;;;10.64;100.00;99618.50;4940193;28;20036;-77
2023/03/30 08:25:10;;;;;;;16.83;10.93;;;;;;;10.73;100.00;99617.34;4935752;29;20042;-78
2023/03/30 08:27:36;;;;;;;17.60;11.70;;;;;;;10.62;100.00;99609.03;4940740;29;20026;-78
2023/03/30 08:30:01;;;;;;;21.48;11.05;;;;;;;10.65;100.00;99604.16;4935041;29;20090;-78
2023/03/30 08:32:27;;;;;;;16.63;11.20;;;;;;;10.67;100.00;99595.94;4941069;28;20039;-77
2023/03/30 08:34:53;;;;;;;19.10;11.03;;;;;;;10.69;100.00;99607.25;4931719;29;20087;-79
2023/03/30 08:37:19;;;;;;;18.90;11.27;;;;;;;10.85;100.00;99609.66;4927226;29;20453;-77
2023/03/30 08:39:44;;;;;;;24.13;11.50;;;;;;;10.73;100.00;99600.53;4937956;29;20023;-78
2023/03/30 08:42:33;;;;;;;16.67;10.27;;;;;;;11.01;100.00;99605.91;4935461;29;20505;-77
2023/03/30 08:45:04;;;;;;;15.55;8.50;;;;;;;10.88;100.00;99598.59;4925345;29;20052;-78
2023/03/30 08:47:37;;;;;;;16.95;9.35;;;;;;;10.97;100.00;99597.44;4940850;29;20038;-77
2023/03/30 08:50:37;;;;;;;16.80;8.25;;;;;;;11.19;100.00;99594.72;4940841;29;20063;-78
2023/03/30 08:53:05;;;;;;;20.90;9.02;;;;;;;11.39;100.00;99586.84;4917722;29;20138;-79
2023/03/30 08:55:39;;;;;;;16.52;7.93;;;;;;;11.34;100.00;99566.06;4938130;28;20082;-78
2023/03/30 08:58:09;;;;;;;11.70;7.70;;;;;;;11.47;100.00;99573.34;4934490;29;20032;-78
2023/03/30 09:00:42;;;;;;;23.02;9.57;;;;;;;11.65;100.00;99572.81;4942188;29;20070;-78
2023/03/30 09:03:39;;;;;;;11.50;7.13;;;;;;;11.71;100.00;99560.50;4932759;29;20091;-78
2023/03/30 09:06:17;;;;;;;13.23;6.47;;;;;;;11.88;100.00;99561.03;4932934;28;20028;-78
2023/03/30 09:08:43;;;;;;;11.73;6.60;;;;;;;12.07;100.00;99535.34;4937751;29;20091;-79
2023/03/30 09:11:17;;;;;;;18.48;8.48;;;;;;;13.01;100.00;99537.91;4939051;29;20284;-77
2023/03/30 09:13:45;;;;;;;13.52;6.82;;;;;;;14.20;100.00;99505.53;4938289;28;20143;-79
2023/03/30 09:16:20;;;;;;;13.38;6.07;;;;;;;14.27;100.00;99394.38;4919030;29;20043;-79
2023/03/30 09:18:52;;;;;;;13.27;5.70;;;;;;;14.26;100.00;99333.69;4928315;29;20398;-79
2023/03/30 09:21:21;;;;;;;13.80;6.72;;;;;;;13.53;100.00;99245.75;4926615;29;20644;-80
2023/03/30 09:23:47;;;;;;;8.27;6.05;;;;;;;14.43;100.00;99279.41;4928981;29;20020;-80
2023/03/30 09:26:19;;;;;;;18.13;6.07;;;;;;;14.29;100.00;99193.66;4918545;29;20046;-78
2023/03/30 09:28:47;;;;;;;12.07;5.75;;;;;;;14.68;100.00;99143.22;4938000;29;20051;-79
2023/03/30 09:31:21;;;;;;;12.43;5.78;;;;;;;14.48;100.00;99059.38;4916765;29;20035;-78
2023/03/30 09:34:02;;;;;;;9.15;5.80;;;;;;;14.17;100.00;99017.50;4927564;29;20039;-79
2023/03/30 09:36:43;;;;;;;14.18;6.10;;;;;;;13.46;100.00;99050.13;4941326;28;20162;-77
2023/03/30 09:39:35;;;;;;;12.88;5.30;;;;;;;13.23;100.00;99125.78;4938632;29;20063;-76
2023/03/30 09:42:01;;;;;;;13.90;5.50;;;;;;;13.41;100.00;99194.72;4917215;29;20433;-78
2023/03/30 09:44:36;;;;;;;13.20;6.10;;;;;;;13.06;100.00;99194.31;4939963;28;20461;-79
2023/03/30 09:47:12;;;;;;;12.35;5.75;;;;;;;13.19;100.00;99247.84;4939946;28;20076;-79
2023/03/30 09:49:38;;;;;;;11.20;5.30;;;;;;;13.48;100.00;99289.31;4936998;28;20043;-79
2023/03/30 09:52:06;;;;;;;12.55;4.75;;;;;;;13.15;100.00;99243.94;4939302;29;20026;-77
2023/03/30 09:54:40;;;;;;;12.95;5.95;;;;;;;12.99;100.00;99280.09;4938609;29;20119;-79
2023/03/30 09:57:22;;;;;;;10.70;5.40;;;;;;;13.37;100.00;99335.59;4935698;29;20032;-79
2023/03/30 09:59:47;;;;;;;9.35;5.20;;;;;;;13.66;100.00;99307.34;4927282;29;20031;-80
2023/03/30 10:02:14;;;;;;;11.10;5.47;;;;;;;13.68;100.00;99256.19;4932545;29;20601;-80
2023/03/30 10:04:51;;;;;;;13.95;6.00;;;;;;;13.71;100.00;99247.69;4939033;29;20031;-77
2023/03/30 10:07:26;;;;;;;11.10;5.03;;;;;;;13.65;100.00;99238.69;4934882;29;20040;-79
2023/03/30 10:09:53;;;;;;;11.05;5.15;;;;;;;13.33;100.00;99186.16;4917959;29;20123;-79
2023/03/30 10:12:18;;;;;;;20.20;7.80;;;;;;;13.30;100.00;99254.41;4933664;29;20501;-77
2023/03/30 10:14:44;;;;;;;13.43;5.80;;;;;;;13.12;100.00;99263.13;4937197;29;20028;-79
2023/03/30 10:17:20;;;;;;;11.43;5.32;;;;;;;13.19;100.00;99322.06;4915058;29;20032;-79
2023/03/30 10:19:45;;;;;;;9.00;5.60;;;;;;;13.10;100.00;99303.53;4934117;29;20024;-81
2023/03/30 10:22:16;;;;;;;13.70;5.97;;;;;;;13.44;100.00;99304.22;4940715;29;20046;-80
2023/03/30 10:24:56;;;;;;;9.23;4.72;;;;;;;13.46;100.00;99288.72;4924623;29;20040;-79
2023/03/30 10:27:36;;;;;;;8.57;4.45;;;;;;;13.35;100.00;99217.06;4928878;29;20135;-82
2023/03/30 10:30:16;;;;;;;10.38;4.95;;;;;;;13.38;100.00;99205.06;4946787;29;20091;-80
2023/03/30 10:32:45;;;;;;;13.35;5.35;;;;;;;13.18;100.00;99159.63;4931031;29;20409;-77
2023/03/30 10:35:16;;;;;;;14.45;5.22;;;;;;;13.21;100.00;99175.28;4927593;29;20074;-79
2023/03/30 10:37:45;;;;;;;11.52;4.40;;;;;;;13.11;100.00;99154.34;4947587;29;20050;-82
2023/03/30 10:40:19;;;;;;;10.50;5.10;;;;;;;12.98;100.00;99184.69;4947078;29;20028;-79
2023/03/30 10:42:49;;;;;;;12.15;5.43;;;;;;;12.73;100.00;99167.75;4932782;29;20032;-80
2023/03/30 10:45:19;;;;;;;17.98;5.38;;;;;;;12.75;100.00;99238.81;4932780;29;20039;-81
2023/03/30 10:47:57;;;;;;;12.10;5.18;;;;;;;12.80;100.00;99232.81;4947125;28;20081;-80
2023/03/30 10:50:29;;;;;;;18.33;4.93;;;;;;;13.17;100.00;99257.13;4946718;29;20032;-80
2023/03/30 10:53:11;;;;;;;12.05;5.22;;;;;;;13.60;100.00;99224.25;4940604;29;20060;-79
2023/03/30 10:55:49;;;;;;;12.95;4.95;;;;;;;13.52;100.00;99144.94;4946398;29;20047;-80
2023/03/30 10:58:26;;;;;;;6.90;4.20;;;;;;;13.59;100.00;99145.69;4923780;29;20087;-77
2023/03/30 11:01:01;;;;;;;11.40;5.13;;;;;;;13.77;100.00;99126.13;4924462;29;20094;-80
2023/03/30 11:03:31;;;;;;;10.02;5.13;;;;;;;13.64;100.00;99072.63;4936026;28;20038;-82
2023/03/30 11:06:08;;;;;;;8.25;5.03;;;;;;;13.63;100.00;99052.22;4940902;28;20050;-81
2023/03/30 11:08:39;;;;;;;14.43;4.68;;;;;;;13.60;100.00;99017.78;4921145;29;20044;-79
2023/03/30 11:11:09;;;;;;;10.10;4.95;;;;;;;13.73;100.00;99049.84;4946410;28;20039;-81
2023/03/30 11:13:38;;;;;;;7.97;4.93;;;;;;;13.64;100.00;99046.63;4926731;29;20091;-80
2023/03/30 11:16:15;;;;;;;8.90;4.63;;;;;;;13.54;100.00;99067.78;4929944;29;20046;-79
2023/03/30 11:19:08;;;;;;;10.05;4.15;;;;;;;13.40;100.00;99064.41;4945854;28;20036;-79
2023/03/30 11:21:56;;;;;;;9.63;4.47;;;;;;;14.00;100.00;99135.34;4946669;29;20528;-79
2023/03/30 11:24:27;;;;;;;9.88;4.03;;;;;;;14.24;100.00;99040.50;4930063;29;20039;-78
2023/03/30 11:27:02;;;;;;;8.50;3.83;;;;;;;14.11;100.00;98879.69;4934468;29;20028;-80
2023/03/30 11:29:39;;;;;;;6.95;3.83;;;;;;;14.36;100.00;98931.28;4928787;29;20035;-82
2023/03/30 11:32:31;;;;;;;9.20;4.20;;;;;;;14.81;100.00;98886.97;4948923;29;20086;-80
2023/03/30 11:35:09;;;;;;;13.60;4.30;;;;;;;14.43;100.00;98750.50;4937564;29;20044;-81
2023/03/30 11:37:47;;;;;;;9.75;3.00;;;;;;;14.00;100.00;98588.88;4946622;29;20032;-81
2023/03/30 11:40:24;;;;;;;10.68;2.92;;;;;;;13.56;100.00;98501.88;4944158;29;20036;-81
2023/03/30 11:42:50;;;;;;;12.55;3.45;;;;;;;13.17;100.00;98563.97;4951632;28;20040;-81
2023/03/30 11:45:23;;;;;;;10.63;3.03;;;;;;;13.09;100.00;98679.53;4952005;29;20023;-82
2023/03/30 11:48:08;;;;;;;10.13;3.25;;;;;;;12.91;100.00;98766.09;4932520;29;20501;-80
2023/03/30 11:50:57;;;;;;;8.93;2.60;;;;;;;12.71;100.00;98888.69;4929149;29;20035;-77